Time;durP1;ratioP1;P1;durP2;ratioP2;P2;SDS_P1;SDS_P2;PMS_P1;PMS_P2;Temp;Humidity;BMP_temperature;BMP_pressure;BME280_temperature;BME280_humidity;BME280_pressure;Samples;Min_cycle;Max_cycle;Signal;HPM_P1;HPM_P2
2022/11/23 00:01:33;;;;;;;5.00;4.60;;;6.20;99.90;;;;;;5091474;28;20464;-82
2022/11/23 00:04:04;;;;;;;4.53;4.23;;;6.20;99.90;;;;;;5099077;28;20476;-80
2022/11/23 00:06:33;;;;;;;4.87;4.47;;;6.20;99.90;;;;;;5099920;27;20457;-81
2022/11/23 00:09:02;;;;;;;4.50;4.30;;;6.10;99.90;;;;;;5100775;28;20445;-81
2022/11/23 00:11:30;;;;;;;4.73;4.40;;;6.20;99.90;;;;;;5090425;28;20456;-80
2022/11/23 00:13:58;;;;;;;4.70;4.30;;;6.20;99.90;;;;;;5087819;28;20549;-81
2022/11/23 00:16:28;;;;;;;5.23;4.73;;;6.20;99.90;;;;;;5093249;28;20454;-79
2022/11/23 00:18:58;;;;;;;4.67;4.37;;;6.30;99.90;;;;;;5091007;28;20475;-80
2022/11/23 00:21:29;;;;;;;4.57;4.27;;;6.20;99.90;;;;;;5090693;28;20967;-81
2022/11/23 00:23:58;;;;;;;4.73;4.20;;;6.20;99.90;;;;;;5089758;27;21063;-80
2022/11/23 00:26:26;;;;;;;4.83;4.50;;;6.20;99.90;;;;;;5091180;28;20466;-80
2022/11/23 00:28:55;;;;;;;3.73;3.53;;;6.20;99.90;;;;;;5093842;28;21006;-82
2022/11/23 00:31:24;;;;;;;4.50;4.23;;;6.20;99.90;;;;;;5089808;28;20548;-82
2022/11/23 00:33:54;;;;;;;4.60;4.23;;;6.30;99.90;;;;;;5095928;27;20558;-81
2022/11/23 00:36:23;;;;;;;4.80;4.40;;;6.30;99.90;;;;;;5093038;28;20486;-82
2022/11/23 00:38:54;;;;;;;4.50;4.20;;;6.20;99.90;;;;;;5087208;28;20478;-81
2022/11/23 00:41:23;;;;;;;4.67;4.33;;;6.20;99.90;;;;;;5090060;28;20590;-82
2022/11/23 00:43:52;;;;;;;3.97;3.77;;;6.20;99.90;;;;;;5090203;28;20488;-82
2022/11/23 00:46:22;;;;;;;4.30;4.10;;;6.20;99.90;;;;;;5092834;28;20457;-82
2022/11/23 00:48:51;;;;;;;4.57;4.27;;;6.30;99.90;;;;;;5089513;28;20857;-82
2022/11/23 00:51:22;;;;;;;6.23;4.43;;;6.20;99.90;;;;;;5088203;28;20457;-81
2022/11/23 00:53:51;;;;;;;6.03;4.50;;;6.20;99.90;;;;;;5089312;28;21071;-83
2022/11/23 00:56:20;;;;;;;5.53;5.00;;;6.20;99.90;;;;;;5087718;28;20450;-82
2022/11/23 00:58:50;;;;;;;5.33;4.50;;;6.20;99.90;;;;;;5086814;28;20474;-81
2022/11/23 01:01:19;;;;;;;6.50;4.77;;;6.30;99.90;;;;;;5088410;27;20469;-80
2022/11/23 01:03:49;;;;;;;4.87;4.67;;;6.20;99.90;;;;;;5088490;28;21022;-80
2022/11/23 01:06:19;;;;;;;3.90;3.80;;;6.10;99.90;;;;;;5094953;28;20559;-81
2022/11/23 01:08:50;;;;;;;5.47;4.83;;;6.10;99.90;;;;;;5093911;28;21102;-81
2022/11/23 01:11:20;;;;;;;4.50;4.20;;;5.90;99.90;;;;;;5091357;28;20481;-81
2022/11/23 01:13:49;;;;;;;4.27;4.00;;;6.00;1.00;;;;;;5097425;28;20551;-81
2022/11/23 01:16:19;;;;;;;4.13;3.93;;;6.00;1.00;;;;;;5093259;28;20466;-81
2022/11/23 01:18:53;;;;;;;4.23;3.93;;;6.10;99.90;;;;;;5095145;28;20480;-81
2022/11/23 01:21:21;;;;;;;4.37;4.17;;;6.10;99.90;;;;;;5100452;28;20442;-81
2022/11/23 01:23:49;;;;;;;4.10;3.90;;;6.00;1.00;;;;;;5092089;28;20514;-83
2022/11/23 01:26:17;;;;;;;3.70;3.50;;;6.10;1.00;;;;;;5088454;28;20458;-81
2022/11/23 01:28:47;;;;;;;4.00;3.80;;;5.90;1.00;;;;;;5089940;28;20456;-81
2022/11/23 01:31:17;;;;;;;3.50;3.40;;;5.90;1.00;;;;;;5090003;27;20924;-80
2022/11/23 01:33:45;;;;;;;4.30;3.90;;;5.80;1.00;;;;;;5087814;28;20991;-80
2022/11/23 01:36:16;;;;;;;4.87;3.73;;;5.90;1.00;;;;;;5090650;28;20449;-81
2022/11/23 01:38:44;;;;;;;4.20;3.90;;;5.70;1.00;;;;;;5091487;28;20561;-80
2022/11/23 01:41:15;;;;;;;4.17;3.90;;;5.80;1.00;;;;;;5096063;28;20445;-80
2022/11/23 01:43:44;;;;;;;4.70;3.50;;;5.80;1.00;;;;;;5090809;28;20556;-80
2022/11/23 01:46:14;;;;;;;3.53;3.23;;;5.90;1.00;;;;;;5088446;28;20556;-81
2022/11/23 01:48:44;;;;;;;4.20;3.90;;;6.00;99.90;;;;;;5098471;28;20844;-80
2022/11/23 01:51:17;;;;;;;4.20;4.00;;;6.10;99.90;;;;;;5102169;28;20441;-80
2022/11/23 01:53:47;;;;;;;3.37;3.17;;;6.00;99.90;;;;;;5102211;28;20492;-80
2022/11/23 01:56:19;;;;;;;4.10;3.80;;;6.10;99.90;;;;;;5101228;28;20453;-81
2022/11/23 01:58:52;;;;;;;3.67;3.50;;;6.10;99.90;;;;;;5091226;28;20464;-80
2022/11/23 02:01:21;;;;;;;3.60;3.50;;;6.10;99.90;;;;;;5088764;27;20450;-81
2022/11/23 02:03:51;;;;;;;3.80;3.60;;;6.10;99.90;;;;;;5098908;28;21011;-83
2022/11/23 02:06:21;;;;;;;5.40;3.90;;;6.10;99.90;;;;;;5100541;28;20457;-82
2022/11/23 02:08:50;;;;;;;5.47;4.37;;;6.00;99.90;;;;;;5095296;28;20529;-81
2022/11/23 02:11:18;;;;;;;3.80;3.50;;;5.90;99.90;;;;;;5098757;28;20456;-81
2022/11/23 02:13:49;;;;;;;13.70;4.50;;;5.90;99.90;;;;;;5096213;28;20683;-81
2022/11/23 02:16:18;;;;;;;3.60;3.40;;;5.80;99.90;;;;;;5092133;28;20449;-80
2022/11/23 02:18:51;;;;;;;5.07;4.65;;;5.90;99.90;;;;;;5095343;28;20441;-81
2022/11/23 02:21:19;;;;;;;4.67;4.30;;;5.80;99.90;;;;;;5094841;28;20683;-80
2022/11/23 02:23:54;;;;;;;6.00;5.60;;;5.80;99.90;;;;;;5090967;28;21058;-82
2022/11/23 02:26:26;;;;;;;4.40;4.17;;;5.80;99.90;;;;;;5090156;28;20452;-82
2022/11/23 02:28:59;;;;;;;4.77;4.30;;;5.70;99.90;;;;;;5084515;28;20453;-82
2022/11/23 02:31:27;;;;;;;4.57;4.30;;;5.80;99.90;;;;;;5092050;28;20462;-82
2022/11/23 02:33:55;;;;;;;5.00;4.40;;;5.90;99.90;;;;;;5092973;28;21091;-81
2022/11/23 02:36:36;;;;;;;3.80;3.60;;;5.70;99.90;;;;;;5097111;28;20989;-81
2022/11/23 02:39:08;;;;;;;3.77;3.60;;;5.80;99.90;;;;;;5092686;28;20610;-80
2022/11/23 02:41:39;;;;;;;3.70;3.40;;;5.80;99.90;;;;;;5098270;28;20453;-80
2022/11/23 02:44:14;;;;;;;3.80;3.30;;;5.70;99.90;;;;;;5092546;28;20465;-81
2022/11/23 02:46:42;;;;;;;4.10;3.80;;;5.70;99.90;;;;;;5093683;28;20444;-80
2022/11/23 02:49:10;;;;;;;3.87;3.47;;;5.80;99.90;;;;;;5092461;28;20448;-80
2022/11/23 02:51:38;;;;;;;4.13;3.40;;;5.80;99.90;;;;;;5092983;28;20456;-80
2022/11/23 02:54:07;;;;;;;3.30;3.20;;;5.50;99.90;;;;;;5089309;28;20469;-80
2022/11/23 02:56:35;;;;;;;3.50;3.30;;;5.60;99.90;;;;;;5098813;28;20538;-80
2022/11/23 02:59:04;;;;;;;3.63;3.53;;;5.60;99.90;;;;;;5099684;28;20580;-80
2022/11/23 03:01:33;;;;;;;3.13;3.00;;;5.60;99.90;;;;;;5097192;28;20445;-82
2022/11/23 03:04:01;;;;;;;5.57;3.60;;;5.40;99.90;;;;;;5093243;28;20807;-80
2022/11/23 03:06:29;;;;;;;3.80;3.60;;;5.60;99.90;;;;;;5096051;28;20452;-81
2022/11/23 03:08:57;;;;;;;4.83;3.60;;;5.40;99.90;;;;;;5085445;28;20590;-81
2022/11/23 03:11:25;;;;;;;3.93;3.70;;;5.50;99.90;;;;;;5092757;28;20926;-80
2022/11/23 03:13:53;;;;;;;4.47;3.73;;;5.50;99.90;;;;;;5094364;28;20476;-81
2022/11/23 03:16:24;;;;;;;4.37;3.97;;;5.40;99.90;;;;;;5099167;28;20569;-81
2022/11/23 03:18:52;;;;;;;3.53;3.33;;;5.40;99.90;;;;;;5096422;28;20449;-80
2022/11/23 03:21:20;;;;;;;5.27;4.40;;;5.30;99.90;;;;;;5096319;28;20672;-80
2022/11/23 03:23:48;;;;;;;4.47;4.07;;;5.40;99.90;;;;;;5092616;28;20477;-80
2022/11/23 03:26:17;;;;;;;3.78;3.50;;;5.40;99.90;;;;;;5095007;27;20488;-80
2022/11/23 03:28:45;;;;;;;6.23;3.87;;;5.40;99.90;;;;;;5093709;28;20301;-80
2022/11/23 03:31:13;;;;;;;3.70;3.60;;;5.30;99.90;;;;;;5092058;28;20452;-80
2022/11/23 03:33:42;;;;;;;3.40;3.13;;;5.30;99.90;;;;;;5096944;27;21060;-80
2022/11/23 03:36:11;;;;;;;4.10;3.70;;;5.20;99.90;;;;;;5094875;28;20578;-82
2022/11/23 03:38:39;;;;;;;3.40;3.20;;;5.10;99.90;;;;;;5094016;27;20470;-80
2022/11/23 03:41:08;;;;;;;3.73;3.43;;;5.10;99.90;;;;;;5091934;28;20466;-80
2022/11/23 03:43:36;;;;;;;3.72;3.45;;;5.20;99.90;;;;;;5096020;27;21211;-79
2022/11/23 03:46:04;;;;;;;3.10;2.90;;;5.00;99.90;;;;;;5094042;27;20198;-81
2022/11/23 03:48:32;;;;;;;3.10;3.00;;;5.10;99.90;;;;;;5104055;27;20458;-81
2022/11/23 03:51:02;;;;;;;3.00;2.80;;;5.20;99.90;;;;;;5100357;28;20464;-80
2022/11/23 03:53:30;;;;;;;3.10;2.90;;;5.30;99.90;;;;;;5103456;28;20544;-80
2022/11/23 03:55:58;;;;;;;3.43;3.23;;;5.30;99.90;;;;;;5102563;28;20452;-80
2022/11/23 03:58:26;;;;;;;3.70;3.33;;;5.30;99.90;;;;;;5092967;28;20445;-80
2022/11/23 04:00:55;;;;;;;3.47;3.23;;;5.30;99.90;;;;;;5094126;27;20473;-80
2022/11/23 04:03:23;;;;;;;3.20;2.80;;;5.30;99.90;;;;;;5096717;28;20475;-81
2022/11/23 04:05:51;;;;;;;3.43;3.23;;;5.20;99.90;;;;;;5098344;27;20457;-82
2022/11/23 04:08:21;;;;;;;3.00;2.80;;;5.60;99.90;;;;;;5098456;27;20468;-80
2022/11/23 04:10:49;;;;;;;2.93;2.77;;;5.60;99.90;;;;;;5093389;27;20490;-80
2022/11/23 04:13:17;;;;;;;3.50;3.27;;;5.60;99.90;;;;;;5095587;27;20480;-80
2022/11/23 04:15:45;;;;;;;3.83;3.50;;;5.80;99.90;;;;;;5099902;27;20601;-81
2022/11/23 04:18:13;;;;;;;4.47;4.13;;;5.80;99.90;;;;;;5105338;27;20460;-80
2022/11/23 04:20:41;;;;;;;3.37;3.17;;;5.80;99.90;;;;;;5104068;28;20491;-81
2022/11/23 04:23:09;;;;;;;3.53;3.23;;;5.60;99.90;;;;;;5097952;27;20468;-80
2022/11/23 04:25:42;;;;;;;2.90;2.80;;;5.60;99.90;;;;;;5104313;27;20458;-82
2022/11/23 04:28:10;;;;;;;4.03;3.70;;;5.60;99.90;;;;;;5101734;27;20465;-81
2022/11/23 04:30:38;;;;;;;3.33;3.17;;;5.70;99.90;;;;;;5097456;27;20453;-82
2022/11/23 04:33:06;;;;;;;4.23;3.83;;;5.70;99.90;;;;;;5092427;28;20527;-81
2022/11/23 04:35:36;;;;;;;8.77;3.90;;;5.60;99.90;;;;;;5100819;28;21034;-81
2022/11/23 04:38:04;;;;;;;3.27;3.13;;;5.80;99.90;;;;;;5098677;28;20453;-81
2022/11/23 04:40:33;;;;;;;5.13;3.50;;;5.80;99.90;;;;;;5099591;28;20488;-82
2022/11/23 04:43:03;;;;;;;3.70;3.40;;;5.70;99.90;;;;;;5102539;28;20442;-82
2022/11/23 04:45:31;;;;;;;3.27;3.07;;;5.60;99.90;;;;;;5100487;28;21011;-81
2022/11/23 04:48:00;;;;;;;3.67;3.33;;;5.60;99.90;;;;;;5097640;27;20491;-82
2022/11/23 04:50:28;;;;;;;3.50;3.20;;;5.90;99.90;;;;;;5101262;27;20457;-83
2022/11/23 04:52:56;;;;;;;3.00;2.90;;;6.00;99.90;;;;;;5097439;27;20484;-81
2022/11/23 04:55:24;;;;;;;3.07;2.97;;;5.90;99.90;;;;;;5097211;27;20534;-80
2022/11/23 04:57:52;;;;;;;3.37;3.17;;;5.90;99.90;;;;;;5099157;28;20496;-81
2022/11/23 05:00:22;;;;;;;4.30;3.37;;;5.60;99.90;;;;;;5095804;28;20489;-79
2022/11/23 05:02:50;;;;;;;5.80;3.80;;;5.40;99.90;;;;;;5090765;27;20526;-81
2022/11/23 05:05:18;;;;;;;3.77;3.10;;;5.50;99.90;;;;;;5102929;27;20583;-80
2022/11/23 05:07:46;;;;;;;3.83;3.53;;;5.70;99.90;;;;;;5093211;28;20450;-81
2022/11/23 05:10:15;;;;;;;3.90;3.60;;;5.80;99.90;;;;;;5097020;28;20894;-80
2022/11/23 05:12:43;;;;;;;3.80;3.50;;;5.70;99.90;;;;;;5094639;28;20493;-81
2022/11/23 05:15:13;;;;;;;3.80;3.70;;;5.50;99.90;;;;;;5096460;28;20200;-80
2022/11/23 05:17:43;;;;;;;3.57;3.37;;;5.60;99.90;;;;;;5096300;27;20453;-81
2022/11/23 05:20:11;;;;;;;3.60;3.40;;;5.70;99.90;;;;;;5101721;27;20465;-81
2022/11/23 05:22:40;;;;;;;3.80;3.60;;;5.60;99.90;;;;;;5103016;27;20442;-82
2022/11/23 05:25:09;;;;;;;4.80;4.40;;;5.80;99.90;;;;;;5098289;27;20276;-81
2022/11/23 05:27:37;;;;;;;4.37;3.57;;;6.00;99.90;;;;;;5095774;28;20960;-81
2022/11/23 05:30:06;;;;;;;3.80;3.50;;;6.10;99.90;;;;;;5098853;27;20449;-82
2022/11/23 05:32:35;;;;;;;3.77;3.60;;;5.90;99.90;;;;;;5096419;27;20485;-82
2022/11/23 05:35:05;;;;;;;5.67;5.27;;;5.80;99.90;;;;;;5093335;28;20887;-83
2022/11/23 05:37:33;;;;;;;4.60;4.17;;;5.80;99.90;;;;;;5104393;27;20499;-85
2022/11/23 05:40:02;;;;;;;3.53;3.33;;;5.80;99.90;;;;;;5100178;27;20463;-84
2022/11/23 05:42:30;;;;;;;4.60;4.00;;;6.00;99.90;;;;;;5101243;27;20498;-84
2022/11/23 05:44:58;;;;;;;4.80;3.50;;;5.90;99.90;;;;;;5097938;28;20491;-84
2022/11/23 05:47:27;;;;;;;4.07;3.77;;;6.00;99.90;;;;;;5102996;27;20461;-83
2022/11/23 05:49:55;;;;;;;4.13;3.80;;;5.90;99.90;;;;;;5099868;27;20821;-84
2022/11/23 05:52:26;;;;;;;3.93;3.60;;;5.90;99.90;;;;;;5093353;28;20466;-83
2022/11/23 05:54:54;;;;;;;4.63;4.00;;;5.80;99.90;;;;;;5104174;28;20472;-84
2022/11/23 05:57:23;;;;;;;4.10;3.73;;;5.90;99.90;;;;;;5094390;28;20464;-84
2022/11/23 05:59:51;;;;;;;3.60;3.50;;;5.80;99.90;;;;;;5098996;28;20463;-83
2022/11/23 06:02:21;;;;;;;4.77;3.60;;;5.80;99.90;;;;;;5097635;28;21110;-83
2022/11/23 06:04:49;;;;;;;3.67;3.57;;;5.60;99.90;;;;;;5103473;27;20500;-84
2022/11/23 06:07:17;;;;;;;3.93;3.47;;;5.90;99.90;;;;;;5106009;28;20514;-83
2022/11/23 06:09:47;;;;;;;4.30;3.90;;;6.00;99.90;;;;;;5103833;27;20440;-83
2022/11/23 06:12:15;;;;;;;2.80;2.70;;;6.00;99.90;;;;;;5097370;28;20473;-82
2022/11/23 06:14:43;;;;;;;3.27;3.17;;;6.00;99.90;;;;;;5093425;28;20489;-83
2022/11/23 06:17:11;;;;;;;5.40;3.40;;;5.90;99.90;;;;;;5104305;28;20468;-84
2022/11/23 06:19:39;;;;;;;3.50;3.30;;;5.80;99.90;;;;;;5100450;28;20459;-82
2022/11/23 06:22:08;;;;;;;3.60;3.40;;;5.80;99.90;;;;;;5096781;28;21061;-84
2022/11/23 06:24:36;;;;;;;4.57;4.27;;;5.90;99.90;;;;;;5096304;28;20487;-85
2022/11/23 06:27:08;;;;;;;4.13;3.93;;;5.90;99.90;;;;;;5094536;28;20506;-83
2022/11/23 06:29:42;;;;;;;5.83;4.13;;;5.80;99.90;;;;;;5096796;28;20448;-83
2022/11/23 06:32:10;;;;;;;4.30;3.90;;;5.90;99.90;;;;;;5091781;28;20381;-84
2022/11/23 06:34:38;;;;;;;6.93;4.40;;;6.00;99.90;;;;;;5096284;28;20234;-83
2022/11/23 06:37:06;;;;;;;5.00;4.60;;;6.00;99.90;;;;;;5096997;28;22738;-83
2022/11/23 06:39:34;;;;;;;4.50;3.80;;;6.00;99.90;;;;;;5098388;28;20842;-82
2022/11/23 06:42:03;;;;;;;4.33;4.03;;;5.90;99.90;;;;;;5099334;28;20477;-83
2022/11/23 06:44:53;;;;;;;4.50;4.30;;;5.90;99.90;;;;;;5091483;28;21081;-84
2022/11/23 06:47:21;;;;;;;5.17;4.17;;;5.80;99.90;;;;;;5091565;28;20823;-83
2022/11/23 06:49:53;;;;;;;5.07;4.70;;;5.80;99.90;;;;;;5090275;28;20671;-82
2022/11/23 06:52:21;;;;;;;5.83;4.10;;;5.60;99.90;;;;;;5094779;27;20200;-83
2022/11/23 06:54:50;;;;;;;4.10;3.90;;;5.90;99.90;;;;;;5091448;27;20473;-84
2022/11/23 06:57:19;;;;;;;5.37;4.20;;;5.90;99.90;;;;;;5096148;28;21035;-83
2022/11/23 06:59:47;;;;;;;4.13;3.93;;;6.00;99.90;;;;;;5094388;28;20441;-84
2022/11/23 07:02:16;;;;;;;4.03;3.57;;;6.00;99.90;;;;;;5099323;27;20482;-85
2022/11/23 07:04:45;;;;;;;4.13;3.83;;;6.00;99.90;;;;;;5097446;27;21087;-84
2022/11/23 07:07:13;;;;;;;4.47;4.17;;;5.90;99.90;;;;;;5098663;28;21203;-85
2022/11/23 07:09:41;;;;;;;3.50;3.30;;;5.90;99.90;;;;;;5098895;28;20488;-87
2022/11/23 07:12:09;;;;;;;3.17;3.07;;;5.80;99.90;;;;;;5105006;27;21003;-87
2022/11/23 07:14:38;;;;;;;3.60;3.50;;;5.70;99.90;;;;;;5101397;27;21019;-85
2022/11/23 07:17:06;;;;;;;3.30;3.20;;;5.70;99.90;;;;;;5104202;27;20452;-84
2022/11/23 07:19:35;;;;;;;3.83;3.63;;;5.70;99.90;;;;;;5102214;27;20464;-86
2022/11/23 07:22:04;;;;;;;3.53;3.23;;;5.90;99.90;;;;;;5096067;28;20469;-84
2022/11/23 07:24:32;;;;;;;4.90;3.83;;;6.00;99.90;;;;;;5099220;27;20996;-84
2022/11/23 07:27:07;;;;;;;4.23;4.00;;;5.90;99.90;;;;;;5103508;28;20513;-83
2022/11/23 07:29:35;;;;;;;9.23;6.00;;;5.90;99.90;;;;;;5098969;28;20461;-84
2022/11/23 07:32:05;;;;;;;19.67;12.20;;;6.00;99.90;;;;;;5091153;28;20484;-84
2022/11/23 07:34:35;;;;;;;4.23;4.03;;;5.90;99.90;;;;;;5101428;28;20483;-84
2022/11/23 07:37:03;;;;;;;6.80;5.20;;;5.90;99.90;;;;;;5102694;28;20514;-84
2022/11/23 07:39:32;;;;;;;5.97;5.33;;;6.00;99.90;;;;;;5094783;28;20524;-84
2022/11/23 07:42:21;;;;;;;4.50;4.20;;;6.00;99.90;;;;;;5103367;28;20470;-84
2022/11/23 07:45:01;;;;;;;4.10;3.90;;;5.90;99.90;;;;;;5102689;28;20477;-84
2022/11/23 07:47:30;;;;;;;3.67;3.50;;;6.00;99.90;;;;;;5097867;27;20465;-84
2022/11/23 07:49:59;;;;;;;3.60;3.40;;;6.10;99.90;;;;;;5104700;28;20533;-84
2022/11/23 07:52:27;;;;;;;6.70;4.00;;;6.20;99.90;;;;;;5103829;28;20449;-85
2022/11/23 07:54:55;;;;;;;3.70;3.50;;;6.40;99.90;;;;;;5094632;28;20551;-84
2022/11/23 07:57:24;;;;;;;4.40;4.10;;;6.50;51.70;;;;;;5103027;28;20464;-84
2022/11/23 07:59:52;;;;;;;3.97;3.67;;;6.60;51.40;;;;;;5093937;28;20445;-85
2022/11/23 08:02:21;;;;;;;3.47;3.23;;;6.80;8.70;;;;;;5106315;28;21045;-84
2022/11/23 08:04:49;;;;;;;3.80;3.60;;;6.80;1.00;;;;;;5102331;28;21082;-83
2022/11/23 08:07:18;;;;;;;4.30;4.00;;;6.90;1.00;;;;;;5103722;28;20462;-84
2022/11/23 08:09:46;;;;;;;4.03;3.73;;;6.90;1.00;;;;;;5101696;28;20838;-84
2022/11/23 08:12:15;;;;;;;4.20;4.00;;;7.20;1.00;;;;;;5104252;28;20443;-84
2022/11/23 08:14:43;;;;;;;4.53;3.97;;;7.40;1.00;;;;;;5103051;28;20471;-83
2022/11/23 08:17:11;;;;;;;4.63;4.20;;;7.40;1.00;;;;;;5093181;28;20451;-84
2022/11/23 08:19:39;;;;;;;4.70;4.50;;;7.50;1.00;;;;;;5102418;27;20474;-84
2022/11/23 08:22:08;;;;;;;4.67;4.37;;;7.60;1.00;;;;;;5107174;27;20471;-83
2022/11/23 08:24:43;;;;;;;4.20;3.80;;;7.70;1.00;;;;;;5105600;28;20477;-83
2022/11/23 08:27:12;;;;;;;4.30;3.67;;;7.80;1.00;;;;;;5105549;28;20454;-84
2022/11/23 08:29:40;;;;;;;4.27;3.80;;;7.80;1.00;;;;;;5107361;27;20442;-84
2022/11/23 08:32:08;;;;;;;5.43;4.00;;;7.80;1.00;;;;;;5103871;28;20696;-84
2022/11/23 08:34:36;;;;;;;4.03;3.73;;;7.80;1.00;;;;;;5101977;28;20476;-84
2022/11/23 08:37:04;;;;;;;4.13;3.83;;;7.80;1.00;;;;;;5103190;28;20448;-84
2022/11/23 08:39:33;;;;;;;4.27;4.00;;;7.80;1.00;;;;;;5100603;28;21283;-83
2022/11/23 08:42:03;;;;;;;4.30;4.10;;;7.80;1.00;;;;;;5098215;27;20490;-85
2022/11/23 08:44:31;;;;;;;5.20;4.27;;;7.80;1.00;;;;;;5091974;28;20509;-84
2022/11/23 08:47:01;;;;;;;4.20;4.00;;;7.70;1.00;;;;;;5094720;28;20445;-83
2022/11/23 08:49:29;;;;;;;4.23;3.93;;;7.60;1.00;;;;;;5102872;27;20458;-84
2022/11/23 08:51:58;;;;;;;4.10;3.80;;;7.60;1.00;;;;;;5100433;27;20460;-83
2022/11/23 08:54:26;;;;;;;3.80;3.50;;;7.60;1.00;;;;;;5093844;28;20479;-84
2022/11/23 08:56:55;;;;;;;4.40;4.10;;;7.50;1.00;;;;;;5099847;27;20552;-82
2022/11/23 08:59:24;;;;;;;4.73;4.33;;;7.60;1.00;;;;;;5093934;28;20452;-84
2022/11/23 09:01:53;;;;;;;4.13;3.83;;;7.70;1.00;;;;;;5100924;28;20566;-83
2022/11/23 09:04:21;;;;;;;3.87;3.60;;;7.70;1.00;;;;;;5099253;27;20476;-85
2022/11/23 09:06:49;;;;;;;4.20;3.70;;;7.60;1.00;;;;;;5096883;27;20464;-84
2022/11/23 09:09:18;;;;;;;4.33;4.03;;;7.60;1.00;;;;;;5098287;27;21249;-85
2022/11/23 09:11:46;;;;;;;3.60;3.40;;;7.70;1.00;;;;;;5092554;28;20900;-85
2022/11/23 09:14:15;;;;;;;3.97;3.67;;;7.60;1.00;;;;;;5098859;27;20526;-83
2022/11/23 09:16:45;;;;;;;3.73;3.53;;;7.60;1.00;;;;;;5093794;28;20457;-85
2022/11/23 09:19:14;;;;;;;3.80;3.50;;;7.80;1.00;;;;;;5097252;27;20460;-84
2022/11/23 09:21:42;;;;;;;3.90;3.63;;;7.90;1.00;;;;;;5092623;28;20459;-86
2022/11/23 09:24:11;;;;;;;4.30;4.00;;;8.10;1.00;;;;;;5098898;28;20488;-84
2022/11/23 09:26:40;;;;;;;7.23;4.43;;;8.70;1.00;;;;;;5098037;27;20542;-84
2022/11/23 09:29:09;;;;;;;5.37;4.17;;;9.20;1.00;;;;;;5096574;27;20454;-85
2022/11/23 09:31:37;;;;;;;4.47;4.17;;;10.00;99.90;;;;;;5093452;28;20467;-85
2022/11/23 09:34:06;;;;;;;5.23;4.73;;;10.30;99.90;;;;;;5092121;28;20479;-84
2022/11/23 09:36:35;;;;;;;3.90;3.70;;;10.90;99.90;;;;;;5096425;28;20489;-84
2022/11/23 09:39:03;;;;;;;4.60;4.20;;;11.50;99.90;;;;;;5096472;28;20462;-84
2022/11/23 09:41:54;;;;;;;4.03;3.73;;;12.00;99.90;;;;;;5097919;28;20466;-84
2022/11/23 09:44:31;;;;;;;3.67;3.47;;;12.90;99.90;;;;;;5089970;28;22164;-84
2022/11/23 09:47:16;;;;;;;6.13;4.03;;;13.70;99.90;;;;;;5092853;28;20510;-84
2022/11/23 09:49:54;;;;;;;4.13;3.40;;;14.40;99.90;;;;;;5093517;28;20459;-83
2022/11/23 09:52:24;;;;;;;3.30;3.00;;;14.90;99.90;;;;;;5091398;27;20457;-84
2022/11/23 09:54:55;;;;;;;3.43;3.07;;;15.40;99.90;;;;;;5101486;28;20473;-83
2022/11/23 09:57:28;;;;;;;3.70;3.50;;;16.90;99.90;;;;;;5100464;28;20977;-82
2022/11/23 10:00:00;;;;;;;8.10;6.13;;;17.40;99.90;;;;;;5100832;28;20478;-84
2022/11/23 10:02:29;;;;;;;4.87;4.47;;;17.00;99.90;;;;;;5105038;28;20447;-82
2022/11/23 10:05:00;;;;;;;4.57;4.27;;;18.10;99.90;;;;;;5091216;28;20479;-85
2022/11/23 10:07:43;;;;;;;10.43;7.63;;;19.10;99.90;;;;;;5094728;28;20453;-84
2022/11/23 10:10:28;;;;;;;4.07;3.70;;;20.40;99.90;;;;;;5097945;28;20966;-83
2022/11/23 10:13:09;;;;;;;5.00;4.50;;;20.00;99.90;;;;;;5096315;28;20461;-85
2022/11/23 10:15:45;;;;;;;7.87;4.70;;;18.90;99.90;;;;;;5095026;27;20449;-82
2022/11/23 10:18:30;;;;;;;5.00;4.57;;;19.30;99.90;;;;;;5092985;28;20495;-84
2022/11/23 10:21:14;;;;;;;4.80;4.50;;;19.50;99.90;;;;;;5096398;28;20464;-84
2022/11/23 10:24:04;;;;;;;5.80;4.40;;;20.10;99.90;;;;;;5091943;28;20575;-84
2022/11/23 10:26:34;;;;;;;4.87;4.37;;;20.00;99.90;;;;;;5091266;28;20479;-83
2022/11/23 10:29:12;;;;;;;5.83;4.80;;;19.30;99.90;;;;;;5094808;27;20455;-84
2022/11/23 10:31:44;;;;;;;4.87;4.47;;;18.50;99.90;;;;;;5096291;27;20445;-83
2022/11/23 10:34:14;;;;;;;6.40;5.13;;;19.00;99.90;;;;;;5094458;27;20481;-84
2022/11/23 10:36:44;;;;;;;5.63;5.10;;;18.80;99.90;;;;;;5091178;28;20460;-83
2022/11/23 10:39:20;;;;;;;4.40;4.00;;;18.20;99.90;;;;;;5095429;28;20523;-85
2022/11/23 10:41:49;;;;;;;8.00;4.80;;;17.40;99.90;;;;;;5096326;28;20452;-84
2022/11/23 10:44:29;;;;;;;5.70;4.80;;;16.50;99.90;;;;;;5093455;28;20557;-84
2022/11/23 10:46:59;;;;;;;5.53;5.00;;;15.10;99.90;;;;;;5092817;27;20458;-84
2022/11/23 10:49:29;;;;;;;4.77;4.37;;;14.70;99.90;;;;;;5096044;27;20462;-84
2022/11/23 10:52:02;;;;;;;4.73;4.20;;;14.20;99.90;;;;;;5091695;28;21087;-84
2022/11/23 10:54:33;;;;;;;4.40;4.00;;;14.30;99.90;;;;;;5097421;28;20479;-84
2022/11/23 10:57:03;;;;;;;4.03;3.63;;;14.20;99.90;;;;;;5101402;27;20458;-84
2022/11/23 10:59:37;;;;;;;4.83;4.00;;;14.50;99.90;;;;;;5098887;28;21037;-85
2022/11/23 11:02:16;;;;;;;4.10;3.80;;;13.90;99.90;;;;;;5097852;28;20488;-82
2022/11/23 11:04:45;;;;;;;4.70;4.20;;;13.90;99.90;;;;;;5103163;27;21181;-84
2022/11/23 11:07:24;;;;;;;7.43;4.03;;;14.90;99.90;;;;;;5099048;28;20484;-84
2022/11/23 11:09:55;;;;;;;3.67;3.47;;;16.60;99.90;;;;;;5101098;27;20725;-84
2022/11/23 11:12:23;;;;;;;3.53;3.23;;;17.80;99.90;;;;;;5097257;28;20467;-85
2022/11/23 11:15:04;;;;;;;3.53;3.03;;;16.90;99.90;;;;;;5100699;28;20477;-84
2022/11/23 11:17:39;;;;;;;3.93;3.53;;;14.80;99.90;;;;;;5098735;28;20490;-86
2022/11/23 11:20:33;;;;;;;3.40;3.20;;;13.80;99.80;;;;;;5097561;28;20492;-84
2022/11/23 11:23:15;;;;;;;3.13;2.93;;;13.40;98.00;;;;;;5097656;28;20483;-85
2022/11/23 11:25:44;;;;;;;3.70;2.97;;;13.30;98.70;;;;;;5098886;28;20538;-83
2022/11/23 11:28:24;;;;;;;2.43;2.30;;;13.30;99.70;;;;;;5099880;28;20461;-84
2022/11/23 11:31:03;;;;;;;3.30;3.00;;;13.20;97.50;;;;;;5098986;28;20454;-84
2022/11/23 11:33:37;;;;;;;2.70;2.50;;;13.20;97.20;;;;;;5099232;27;20508;-84
2022/11/23 11:36:08;;;;;;;2.70;2.50;;;13.00;96.40;;;;;;5104672;27;21218;-84
2022/11/23 11:38:38;;;;;;;2.60;2.40;;;13.10;96.80;;;;;;5094934;27;20460;-84
2022/11/23 11:41:10;;;;;;;2.43;2.23;;;12.40;91.70;;;;;;5096300;27;20450;-84
2022/11/23 11:43:44;;;;;;;3.00;2.60;;;12.30;93.50;;;;;;5102323;27;20846;-85
2022/11/23 11:46:15;;;;;;;2.70;2.50;;;12.70;96.60;;;;;;5095398;28;20455;-84
2022/11/23 11:49:05;;;;;;;2.50;2.30;;;12.90;98.10;;;;;;5100759;28;20447;-85
2022/11/23 11:51:39;;;;;;;2.70;2.60;;;13.10;98.90;;;;;;5098188;27;20439;-80
2022/11/23 11:54:18;;;;;;;2.40;2.30;;;12.80;99.70;;;;;;5097104;28;20504;-81
2022/11/23 11:56:51;;;;;;;2.60;2.50;;;12.60;98.40;;;;;;5093516;28;20578;-81
2022/11/23 11:59:26;;;;;;;2.63;2.43;;;12.50;98.00;;;;;;5087281;27;20954;-81
2022/11/23 12:02:00;;;;;;;6.43;3.50;;;12.70;99.90;;;;;;5088966;27;20458;-82
2022/11/23 12:04:35;;;;;;;6.50;4.40;;;12.60;98.70;;;;;;5096442;27;20597;-84
2022/11/23 12:07:08;;;;;;;2.83;2.50;;;12.70;99.90;;;;;;5097916;28;20463;-85
2022/11/23 12:09:43;;;;;;;2.57;2.47;;;12.60;99.80;;;;;;5093299;28;21409;-84
2022/11/23 12:12:16;;;;;;;2.90;2.70;;;12.80;99.90;;;;;;5094442;27;20532;-85
2022/11/23 12:14:46;;;;;;;2.77;2.47;;;12.60;98.60;;;;;;5093030;27;20833;-84
2022/11/23 12:17:35;;;;;;;2.80;2.70;;;12.60;99.60;;;;;;5093153;27;20451;-84
2022/11/23 12:20:13;;;;;;;2.10;2.00;;;12.70;99.90;;;;;;5096239;27;21011;-84
2022/11/23 12:22:56;;;;;;;3.90;2.73;;;12.40;98.80;;;;;;5090586;28;20546;-85
2022/11/23 12:25:35;;;;;;;3.00;2.67;;;12.50;99.90;;;;;;5095689;27;20476;-84
2022/11/23 12:28:23;;;;;;;4.97;3.50;;;12.40;99.90;;;;;;5096729;28;20493;-84
2022/11/23 12:31:02;;;;;;;2.93;2.73;;;12.30;98.00;;;;;;5092493;28;20454;-85
2022/11/23 12:34:04;;;;;;;2.83;2.50;;;11.70;95.00;;;;;;5096164;27;20481;-83
2022/11/23 12:36:54;;;;;;;2.70;2.50;;;12.10;98.10;;;;;;5092664;28;21092;-86
2022/11/23 12:39:57;;;;;;;2.77;2.60;;;12.20;99.50;;;;;;5095235;28;20472;-84
2022/11/23 12:42:38;;;;;;;2.57;2.37;;;12.10;98.00;;;;;;5097376;27;22254;-84
2022/11/23 12:45:30;;;;;;;2.80;2.70;;;11.90;97.40;;;;;;5095981;27;20490;-85
2022/11/23 12:48:14;;;;;;;2.87;2.67;;;12.10;99.30;;;;;;5099621;27;20563;-84
2022/11/23 12:50:48;;;;;;;3.83;3.20;;;12.00;99.90;;;;;;5096335;28;20860;-84
2022/11/23 12:53:31;;;;;;;5.40;2.90;;;12.20;99.90;;;;;;5095126;28;20491;-85
2022/11/23 12:56:10;;;;;;;3.77;2.83;;;12.20;99.90;;;;;;5093344;28;20843;-85
2022/11/23 12:58:42;;;;;;;2.97;2.77;;;12.30;99.90;;;;;;5090794;27;20463;-84
2022/11/23 13:01:14;;;;;;;3.40;3.10;;;12.30;99.90;;;;;;5096542;28;20536;-84
2022/11/23 13:04:20;;;;;;;2.93;2.70;;;12.10;99.90;;;;;;5095710;28;20882;-85
2022/11/23 13:07:19;;;;;;;3.80;3.47;;;11.60;98.20;;;;;;5104241;27;20879;-84
2022/11/23 13:10:16;;;;;;;3.13;2.97;;;11.80;99.90;;;;;;5094955;27;21133;-83
2022/11/23 13:13:03;;;;;;;3.03;2.67;;;11.80;99.90;;;;;;5094502;27;20453;-85
2022/11/23 13:15:46;;;;;;;2.67;2.57;;;11.50;99.90;;;;;;5093577;28;20471;-85
2022/11/23 13:18:36;;;;;;;3.43;2.87;;;11.70;99.90;;;;;;5091684;27;20461;-85